Time;durP1;ratioP1;P1;durP2;ratioP2;P2;SDS_P1;SDS_P2;PMS_P1;PMS_P2;Temp;Humidity;BMP_temperature;BMP_pressure;BME280_temperature;BME280_humidity;BME280_pressure;Samples;Min_cycle;Max_cycle;Signal;HPM_P1;HPM_P2
2022/05/18 00:00:57;;;;;;;5.80;1.70;;;21.90;93.60;;;;;;5100102;28;20031;-75
2022/05/18 00:03:31;;;;;;;5.05;2.10;;;21.90;93.30;;;;;;5099998;28;20028;-76
2022/05/18 00:06:00;;;;;;;3.80;2.22;;;21.90;93.40;;;;;;5098642;28;20437;-76
2022/05/18 00:08:27;;;;;;;4.93;2.22;;;21.80;93.60;;;;;;5099553;28;20424;-76
2022/05/18 00:10:53;;;;;;;6.63;2.03;;;21.80;94.30;;;;;;5098598;28;20019;-77
2022/05/18 00:13:20;;;;;;;4.05;1.95;;;21.70;94.20;;;;;;5099775;28;20024;-76
2022/05/18 00:15:46;;;;;;;3.25;2.08;;;21.60;94.60;;;;;;5089772;28;20054;-75
2022/05/18 00:18:13;;;;;;;8.35;2.28;;;21.50;94.40;;;;;;5093499;28;20081;-76
2022/05/18 00:20:39;;;;;;;3.67;1.80;;;21.50;94.70;;;;;;5098691;28;20453;-75
2022/05/18 00:23:06;;;;;;;7.50;2.13;;;21.40;95.40;;;;;;5099619;28;20028;-75
2022/05/18 00:25:38;;;;;;;6.13;1.92;;;21.30;95.90;;;;;;5099717;28;20024;-75
2022/05/18 00:28:05;;;;;;;3.50;1.80;;;21.20;96.60;;;;;;5098105;28;20031;-75
2022/05/18 00:30:32;;;;;;;3.95;2.00;;;21.10;96.80;;;;;;5099499;28;20490;-76
2022/05/18 00:33:03;;;;;;;8.63;2.40;;;21.10;96.70;;;;;;5099532;28;20131;-76
2022/05/18 00:35:29;;;;;;;6.22;1.98;;;21.10;97.00;;;;;;5098378;28;20020;-76
2022/05/18 00:37:55;;;;;;;3.28;1.85;;;21.10;96.60;;;;;;5097656;28;20035;-76
2022/05/18 00:40:21;;;;;;;7.60;1.67;;;21.10;97.20;;;;;;5099462;28;20016;-76
2022/05/18 00:42:47;;;;;;;3.97;1.92;;;21.10;97.10;;;;;;5097849;28;20399;-76
2022/05/18 00:45:15;;;;;;;3.33;1.90;;;21.10;97.10;;;;;;5099091;28;20119;-76
2022/05/18 00:47:41;;;;;;;4.65;2.20;;;21.10;97.20;;;;;;5097811;28;20032;-76
2022/05/18 00:50:41;;;;;;;3.95;2.17;;;21.10;97.30;;;;;;5097772;28;20480;-76
2022/05/18 00:53:18;;;;;;;4.05;1.92;;;21.10;96.80;;;;;;5064181;28;20036;-76
2022/05/18 00:55:49;;;;;;;4.82;1.77;;;21.20;96.90;;;;;;5098781;28;20088;-76
2022/05/18 00:58:21;;;;;;;7.63;2.08;;;21.20;96.80;;;;;;5097626;28;20054;-77
2022/05/18 01:00:50;;;;;;;6.40;2.25;;;21.20;97.10;;;;;;5097602;28;20540;-76
2022/05/18 01:03:23;;;;;;;7.82;1.92;;;21.10;96.60;;;;;;5097804;28;20016;-76
2022/05/18 01:05:59;;;;;;;3.85;2.00;;;21.10;96.90;;;;;;5098793;28;20058;-76
2022/05/18 01:08:45;;;;;;;7.20;2.03;;;21.10;97.10;;;;;;5098486;28;20077;-76
2022/05/18 01:11:11;;;;;;;4.00;1.83;;;21.00;97.10;;;;;;5098498;28;20032;-76
2022/05/18 01:13:37;;;;;;;4.20;1.75;;;21.00;97.30;;;;;;5098540;28;20028;-75
2022/05/18 01:16:03;;;;;;;4.00;1.83;;;21.00;97.00;;;;;;5086452;28;20047;-75
2022/05/18 01:18:30;;;;;;;5.15;1.75;;;20.90;97.60;;;;;;5094667;28;20020;-75
2022/05/18 01:20:55;;;;;;;3.33;1.67;;;20.80;97.90;;;;;;5098458;28;20032;-76
2022/05/18 01:23:28;;;;;;;5.80;2.00;;;20.70;98.20;;;;;;5098209;28;20066;-76
2022/05/18 01:26:06;;;;;;;4.70;2.05;;;20.60;99.20;;;;;;5098465;28;20020;-75
2022/05/18 01:28:47;;;;;;;5.65;2.10;;;20.50;98.80;;;;;;5097359;28;20118;-76
2022/05/18 01:31:12;;;;;;;;;;;20.50;99.40;;;;;;5098701;28;20099;-76
2022/05/18 01:33:38;;;;;;;6.40;1.60;;;20.40;99.20;;;;;;5090933;28;19946;-75
2022/05/18 01:36:05;;;;;;;4.80;2.13;;;20.40;99.70;;;;;;5096801;28;20024;-76
2022/05/18 01:38:32;;;;;;;8.52;2.08;;;20.40;99.30;;;;;;5097929;28;20020;-75
2022/05/18 01:41:12;;;;;;;7.32;2.25;;;20.40;99.40;;;;;;5098289;28;20426;-75
2022/05/18 01:43:43;;;;;;;3.67;2.10;;;20.40;99.60;;;;;;5097532;28;20067;-75
2022/05/18 01:46:10;;;;;;;;;;;20.40;99.70;;;;;;5096958;28;20051;-75
2022/05/18 01:48:42;;;;;;;8.10;2.25;;;20.30;99.90;;;;;;5098259;28;19911;-75
2022/05/18 01:51:09;;;;;;;6.00;2.25;;;20.40;99.90;;;;;;5098150;28;20023;-76
2022/05/18 01:53:36;;;;;;;6.40;2.08;;;20.30;99.90;;;;;;5097598;28;20491;-75
2022/05/18 01:56:04;;;;;;;5.32;2.53;;;20.40;99.90;;;;;;5096393;28;20023;-75
2022/05/18 01:58:31;;;;;;;6.97;2.10;;;20.40;99.90;;;;;;5097950;28;20016;-75
2022/05/18 02:00:57;;;;;;;4.40;1.98;;;20.40;99.90;;;;;;5096472;28;20031;-76
2022/05/18 02:03:23;;;;;;;4.70;2.15;;;20.40;99.90;;;;;;5097776;28;20012;-76
2022/05/18 02:05:51;;;;;;;5.80;1.95;;;20.40;99.90;;;;;;5096638;28;20028;-75
2022/05/18 02:08:17;;;;;;;4.65;2.05;;;20.40;99.90;;;;;;5096348;28;20536;-75
2022/05/18 02:10:43;;;;;;;4.68;2.03;;;20.40;99.90;;;;;;5096292;28;20135;-74
2022/05/18 02:13:10;;;;;;;5.53;2.22;;;20.50;99.80;;;;;;5097739;28;20020;-75
2022/05/18 02:15:36;;;;;;;5.50;2.33;;;20.50;99.90;;;;;;5089122;28;20074;-76
2022/05/18 02:18:02;;;;;;;3.55;2.22;;;20.50;99.90;;;;;;5091339;28;20024;-76
2022/05/18 02:20:28;;;;;;;7.03;1.92;;;20.50;99.90;;;;;;5096287;28;20020;-76
2022/05/18 02:22:54;;;;;;;6.15;2.13;;;20.50;99.90;;;;;;5097174;28;20077;-75
2022/05/18 02:25:21;;;;;;;5.65;1.85;;;20.40;99.90;;;;;;5097578;28;20020;-76
2022/05/18 02:27:47;;;;;;;6.18;1.65;;;20.40;99.90;;;;;;5097513;28;20024;-76
2022/05/18 02:30:14;;;;;;;3.60;1.52;;;20.30;99.90;;;;;;5097400;28;20028;-75
2022/05/18 02:32:41;;;;;;;7.50;3.17;;;20.30;99.90;;;;;;5097371;28;20024;-76
2022/05/18 02:35:08;;;;;;;4.38;1.85;;;20.20;99.90;;;;;;5097398;28;20032;-74
2022/05/18 02:37:34;;;;;;;7.38;1.90;;;20.10;99.90;;;;;;5097019;28;20027;-75
2022/05/18 02:40:01;;;;;;;8.23;2.00;;;20.10;99.90;;;;;;5096010;28;20464;-76
2022/05/18 02:42:27;;;;;;;6.10;2.08;;;20.00;99.90;;;;;;5097210;28;20013;-76
2022/05/18 02:44:52;;;;;;;8.60;1.92;;;20.00;99.90;;;;;;5097062;28;20039;-75
2022/05/18 02:47:20;;;;;;;6.43;2.05;;;19.90;99.90;;;;;;5097212;28;20027;-76
2022/05/18 02:49:47;;;;;;;6.18;2.13;;;19.90;99.90;;;;;;5097258;28;20028;-76
2022/05/18 02:52:12;;;;;;;4.43;2.58;;;19.80;99.90;;;;;;5096035;28;20031;-74
2022/05/18 02:57:22;;;;;;;7.57;2.53;;;19.70;99.90;;;;;;5101431;28;20031;-74
2022/05/18 02:59:49;;;;;;;5.38;2.00;;;19.60;99.90;;;;;;5099828;28;20024;-74
2022/05/18 03:02:15;;;;;;;5.65;2.45;;;19.50;99.90;;;;;;5101345;28;20012;-73
2022/05/18 03:04:41;;;;;;;3.65;1.95;;;19.40;99.90;;;;;;5100143;28;20454;-74
2022/05/18 03:07:07;;;;;;;4.43;2.35;;;19.40;99.90;;;;;;5099899;28;20028;-74
2022/05/18 03:09:33;;;;;;;4.13;1.92;;;19.30;99.90;;;;;;5099507;28;20027;-73
2022/05/18 03:11:59;;;;;;;12.98;2.15;;;19.30;99.90;;;;;;5100937;28;20024;-73
2022/05/18 03:14:25;;;;;;;9.98;2.08;;;19.30;99.90;;;;;;5100921;28;20030;-73
2022/05/18 03:16:52;;;;;;;5.72;2.10;;;19.20;99.90;;;;;;5087115;28;20012;-74
2022/05/18 03:19:18;;;;;;;3.65;1.73;;;19.20;99.90;;;;;;5099770;28;20046;-73
2022/05/18 03:24:29;;;;;;;5.75;2.25;;;19.20;99.90;;;;;;5100539;28;20034;-74
2022/05/18 03:26:55;;;;;;;5.82;1.75;;;19.10;99.90;;;;;;5099441;28;20024;-74
2022/05/18 03:29:21;;;;;;;4.70;2.22;;;19.20;99.90;;;;;;5100692;28;20024;-74
2022/05/18 03:31:48;;;;;;;3.72;1.90;;;19.10;99.90;;;;;;5099418;28;20024;-73
2022/05/18 03:34:14;;;;;;;5.82;2.50;;;19.10;99.90;;;;;;5100549;28;20040;-75
2022/05/18 03:36:41;;;;;;;5.05;2.42;;;19.10;99.90;;;;;;5099490;28;20115;-74
2022/05/18 03:39:07;;;;;;;5.00;1.80;;;19.00;99.90;;;;;;5100498;28;20028;-74
2022/05/18 03:41:36;;;;;;;3.95;2.10;;;19.00;99.90;;;;;;5099235;28;20020;-75
2022/05/18 03:44:06;;;;;;;5.68;2.60;;;19.00;99.90;;;;;;5100149;28;20031;-75
2022/05/18 03:46:32;;;;;;;4.38;2.28;;;19.00;99.90;;;;;;5100499;28;20051;-75
2022/05/18 03:48:58;;;;;;;3.90;2.47;;;18.90;99.90;;;;;;5099078;28;20106;-75
2022/05/18 03:51:25;;;;;;;7.78;2.65;;;18.90;99.90;;;;;;5099347;28;20114;-75
2022/05/18 03:53:51;;;;;;;4.10;2.17;;;18.80;99.90;;;;;;5099615;28;20028;-75
2022/05/18 03:56:18;;;;;;;3.20;2.15;;;18.80;99.90;;;;;;5100292;28;20020;-75
2022/05/18 03:58:44;;;;;;;3.55;2.30;;;18.70;99.90;;;;;;5098677;28;20024;-75
2022/05/18 04:01:10;;;;;;;4.78;2.60;;;18.70;99.90;;;;;;5100169;28;20066;-74
2022/05/18 04:03:39;;;;;;;3.80;2.28;;;18.60;99.90;;;;;;5099875;28;20480;-75
2022/05/18 04:06:06;;;;;;;6.05;2.65;;;18.60;99.90;;;;;;5098403;28;20027;-75
2022/05/18 04:08:32;;;;;;;6.80;2.85;;;18.50;99.90;;;;;;5099544;28;20027;-75
2022/05/18 04:10:58;;;;;;;4.18;2.20;;;18.50;99.90;;;;;;5099882;28;20020;-75
2022/05/18 04:13:25;;;;;;;8.55;2.60;;;18.40;99.90;;;;;;5098254;28;20107;-75
2022/05/18 04:15:51;;;;;;;3.83;2.25;;;18.40;99.90;;;;;;5090592;28;20467;-75
2022/05/18 04:18:18;;;;;;;7.60;2.67;;;18.40;99.90;;;;;;5095361;28;20024;-75
2022/05/18 04:20:45;;;;;;;7.15;2.75;;;18.40;99.90;;;;;;5098719;28;20028;-74
2022/05/18 04:23:12;;;;;;;4.35;2.10;;;18.30;99.90;;;;;;5099421;28;20035;-74
2022/05/18 04:25:39;;;;;;;5.20;2.50;;;18.40;99.90;;;;;;5099669;28;20099;-75
2022/05/18 04:28:07;;;;;;;3.88;2.33;;;18.30;99.90;;;;;;5099547;28;20024;-77
2022/05/18 04:30:33;;;;;;;8.00;2.33;;;18.30;99.90;;;;;;5098077;28;20487;-77
2022/05/18 04:32:59;;;;;;;7.32;2.67;;;18.20;99.90;;;;;;5099577;28;20024;-77
2022/05/18 04:35:27;;;;;;;5.82;2.20;;;18.20;99.90;;;;;;5098020;28;20028;-76
2022/05/18 04:37:54;;;;;;;6.53;3.15;;;18.20;99.90;;;;;;5098980;28;20131;-77
2022/05/18 04:40:20;;;;;;;7.28;3.22;;;18.20;99.90;;;;;;5099573;28;20028;-76
2022/05/18 04:42:46;;;;;;;4.30;2.42;;;18.20;99.90;;;;;;5099112;28;20397;-77
2022/05/18 04:45:15;;;;;;;10.27;2.75;;;18.10;99.90;;;;;;5099248;28;20093;-76
2022/05/18 04:47:41;;;;;;;5.18;2.50;;;18.10;99.90;;;;;;5097763;28;20067;-76
2022/05/18 04:50:08;;;;;;;7.20;2.20;;;18.20;99.90;;;;;;5099215;28;20028;-76
2022/05/18 04:52:34;;;;;;;9.65;3.00;;;18.10;99.90;;;;;;5098688;28;20036;-77
2022/05/18 04:55:00;;;;;;;7.65;2.50;;;18.20;99.90;;;;;;5097595;28;20028;-75
2022/05/18 04:57:26;;;;;;;5.38;2.42;;;18.20;99.90;;;;;;5099133;28;20024;-75
2022/05/18 04:59:52;;;;;;;10.65;3.03;;;18.20;99.90;;;;;;5097545;28;20023;-75
2022/05/18 05:02:18;;;;;;;8.80;3.13;;;18.30;99.90;;;;;;5114766;28;20515;-75
2022/05/18 05:04:44;;;;;;;8.32;3.47;;;18.40;99.90;;;;;;5097475;28;20052;-76
2022/05/18 05:07:10;;;;;;;3.92;2.67;;;18.40;99.90;;;;;;5098766;28;20499;-75
2022/05/18 05:09:37;;;;;;;6.22;2.65;;;18.50;99.90;;;;;;5097406;28;20020;-75
2022/05/18 05:12:04;;;;;;;7.82;3.15;;;18.60;99.90;;;;;;5097513;28;20082;-75
2022/05/18 05:14:32;;;;;;;5.15;3.38;;;18.60;99.90;;;;;;5098461;28;20031;-75
2022/05/18 05:17:00;;;;;;;7.82;2.85;;;18.70;99.90;;;;;;5083542;28;20369;-75
2022/05/18 05:19:26;;;;;;;6.60;2.95;;;18.70;99.90;;;;;;5097861;28;20008;-75
2022/05/18 05:21:52;;;;;;;4.95;2.70;;;18.80;99.90;;;;;;5098301;28;20402;-75
2022/05/18 05:24:18;;;;;;;6.03;2.85;;;18.90;99.90;;;;;;5098261;28;20488;-74
2022/05/18 05:26:44;;;;;;;7.53;3.25;;;19.00;99.90;;;;;;5098211;28;20032;-75
2022/05/18 05:29:12;;;;;;;8.13;3.15;;;19.10;99.90;;;;;;5097022;28;20020;-75
2022/05/18 05:31:38;;;;;;;7.75;3.00;;;19.20;99.90;;;;;;5098133;28;20032;-75
2022/05/18 05:34:05;;;;;;;8.73;2.90;;;19.30;99.90;;;;;;5090490;28;20046;-75
2022/05/18 05:36:31;;;;;;;5.30;2.75;;;19.30;99.90;;;;;;5092641;28;20473;-75
2022/05/18 05:38:57;;;;;;;6.30;3.10;;;19.40;99.90;;;;;;5089184;28;20024;-75
2022/05/18 05:41:26;;;;;;;5.32;3.00;;;19.50;99.90;;;;;;5096707;28;20097;-75
2022/05/18 05:43:54;;;;;;;5.40;2.45;;;19.60;99.90;;;;;;5097981;28;20074;-75
2022/05/18 05:46:20;;;;;;;5.43;2.70;;;19.70;99.90;;;;;;5097887;28;20047;-75
2022/05/18 05:48:47;;;;;;;6.30;2.53;;;19.80;99.90;;;;;;5098008;28;20027;-75
2022/05/18 05:51:15;;;;;;;5.93;2.45;;;19.90;99.90;;;;;;5098083;28;20023;-75
2022/05/18 05:53:42;;;;;;;5.97;2.47;;;20.00;99.90;;;;;;5096569;28;20028;-75
2022/05/18 05:56:10;;;;;;;5.28;2.40;;;20.10;99.90;;;;;;5096689;28;20503;-75
2022/05/18 05:58:36;;;;;;;12.63;3.38;;;20.20;99.90;;;;;;5097796;28;20027;-75
2022/05/18 06:01:04;;;;;;;5.10;2.90;;;20.20;99.90;;;;;;5097782;28;20048;-75
2022/05/18 06:03:31;;;;;;;7.80;3.38;;;20.30;99.90;;;;;;5097739;28;20023;-75
2022/05/18 06:05:58;;;;;;;8.45;3.38;;;20.30;99.90;;;;;;5097763;28;20024;-75
2022/05/18 06:08:25;;;;;;;7.60;2.90;;;20.40;99.90;;;;;;5096578;28;20024;-75
2022/05/18 06:10:51;;;;;;;8.27;3.42;;;20.50;99.90;;;;;;5097771;28;20055;-75
2022/05/18 06:13:16;;;;;;;9.50;3.03;;;20.60;99.90;;;;;;5097701;28;20491;-75
2022/05/18 06:15:43;;;;;;;8.70;3.08;;;20.70;99.90;;;;;;5079916;28;20491;-75
2022/05/18 06:18:09;;;;;;;8.98;4.07;;;20.80;99.90;;;;;;5092589;28;20514;-74
2022/05/18 06:20:35;;;;;;;10.85;4.20;;;21.00;99.90;;;;;;5096557;28;20411;-75
2022/05/18 06:23:06;;;;;;;8.05;4.07;;;21.10;99.90;;;;;;5095873;28;20024;-75
2022/05/18 06:25:33;;;;;;;9.82;3.28;;;21.20;99.90;;;;;;5096311;28;20028;-74
2022/05/18 06:27:59;;;;;;;7.03;3.50;;;21.30;99.90;;;;;;5097351;28;20017;-76
2022/05/18 06:30:27;;;;;;;7.70;3.92;;;21.30;99.90;;;;;;5096031;28;20563;-75
2022/05/18 06:32:53;;;;;;;7.28;3.10;;;21.40;99.90;;;;;;5096230;28;20020;-76
2022/05/18 06:35:19;;;;;;;12.05;3.15;;;21.30;99.90;;;;;;5097878;28;20032;-75
2022/05/18 06:37:45;;;;;;;8.35;3.20;;;21.30;99.90;;;;;;5096019;28;20021;-76
2022/05/18 06:40:11;;;;;;;10.15;2.92;;;21.30;99.90;;;;;;5097532;28;20116;-75
2022/05/18 06:42:38;;;;;;;6.47;2.47;;;21.40;99.90;;;;;;5097332;28;20031;-76
2022/05/18 06:45:08;;;;;;;5.93;3.13;;;21.50;99.90;;;;;;5097139;28;20387;-75
2022/05/18 06:47:34;;;;;;;13.53;3.40;;;21.60;99.90;;;;;;5081364;28;20085;-75
2022/05/18 06:50:01;;;;;;;11.90;3.40;;;21.80;99.90;;;;;;5097223;28;20020;-76
2022/05/18 06:52:27;;;;;;;8.77;3.25;;;21.90;99.90;;;;;;5096987;28;20027;-76
2022/05/18 06:54:53;;;;;;;10.45;3.08;;;21.90;99.90;;;;;;5095905;28;20028;-76
2022/05/18 06:57:19;;;;;;;10.35;3.05;;;22.00;99.90;;;;;;5097122;28;20030;-76
2022/05/18 06:59:44;;;;;;;8.05;3.38;;;22.10;99.90;;;;;;5097170;28;20024;-76
2022/05/18 07:02:11;;;;;;;11.15;3.47;;;22.00;99.90;;;;;;5097018;28;20400;-76
2022/05/18 07:04:37;;;;;;;7.97;3.05;;;22.10;99.90;;;;;;5097398;28;20096;-76
2022/05/18 07:07:03;;;;;;;7.85;2.20;;;22.30;99.90;;;;;;5096959;28;20028;-76
2022/05/18 07:09:29;;;;;;;6.38;3.17;;;22.40;99.90;;;;;;5097001;28;20113;-76
2022/05/18 07:11:55;;;;;;;5.28;2.47;;;22.50;99.90;;;;;;5097016;28;20106;-75
2022/05/18 07:14:24;;;;;;;4.30;2.28;;;22.60;99.90;;;;;;5096938;28;20020;-77
2022/05/18 07:16:50;;;;;;;7.50;2.70;;;22.70;99.90;;;;;;5082000;28;20111;-75
2022/05/18 07:19:18;;;;;;;12.27;2.35;;;22.80;99.90;;;;;;5095996;28;20085;-75
2022/05/18 07:21:45;;;;;;;7.80;2.67;;;22.80;99.90;;;;;;5095516;28;20114;-75
2022/05/18 07:24:10;;;;;;;5.97;2.17;;;22.90;99.90;;;;;;5096781;28;20016;-74
2022/05/18 07:26:37;;;;;;;5.20;2.40;;;23.00;99.90;;;;;;5096841;28;20082;-75
2022/05/18 07:29:04;;;;;;;5.45;2.97;;;23.00;99.90;;;;;;5095798;28;20031;-75
2022/05/18 07:32:08;;;;;;;8.65;3.38;;;23.10;99.90;;;;;;5096690;28;20112;-75
2022/05/18 07:34:16;;;;;;;11.48;2.45;;;23.10;99.90;;;;;;5096499;28;20016;-75
2022/05/18 07:36:42;;;;;;;6.95;3.05;;;23.20;99.90;;;;;;5096999;28;20481;-74
2022/05/18 07:39:08;;;;;;;6.32;2.13;;;23.20;99.90;;;;;;5096558;28;20032;-74
2022/05/18 07:41:36;;;;;;;6.07;2.35;;;23.40;99.90;;;;;;5097026;28;20032;-75
2022/05/18 07:44:01;;;;;;;5.82;2.53;;;23.50;99.90;;;;;;5092628;28;20043;-74
2022/05/18 07:46:27;;;;;;;5.05;2.42;;;23.60;99.90;;;;;;5100232;28;20393;-75
2022/05/18 07:48:53;;;;;;;9.32;2.42;;;23.80;99.90;;;;;;5088509;28;20056;-74
2022/05/18 07:51:19;;;;;;;5.53;2.30;;;23.70;99.90;;;;;;5099655;28;20012;-75
2022/05/18 07:53:45;;;;;;;11.73;3.03;;;23.80;99.90;;;;;;5098610;28;20020;-74
2022/05/18 07:56:11;;;;;;;5.28;2.45;;;23.90;99.90;;;;;;5098864;28;20053;-75
2022/05/18 07:58:37;;;;;;;6.03;2.42;;;24.00;99.90;;;;;;5098791;28;20088;-75
2022/05/18 08:01:02;;;;;;;7.57;2.45;;;24.10;99.90;;;;;;5098789;28;20061;-75
2022/05/18 08:03:28;;;;;;;7.82;2.60;;;24.30;99.90;;;;;;5099836;28;20046;-75
2022/05/18 08:05:54;;;;;;;7.70;2.25;;;24.20;99.90;;;;;;5100260;28;20017;-75
2022/05/18 08:08:21;;;;;;;9.23;2.50;;;24.10;99.90;;;;;;5098587;28;20052;-74
2022/05/18 08:16:18;;;;;;;4.60;2.30;;;24.40;99.90;;;;;;5087124;28;20055;-75
2022/05/18 08:18:44;;;;;;;7.95;2.30;;;24.30;99.90;;;;;;5098955;28;20472;-75
2022/05/18 08:21:10;;;;;;;4.47;2.30;;;24.30;99.90;;;;;;5098555;28;20437;-74
2022/05/18 08:23:36;;;;;;;7.93;1.98;;;24.50;99.90;;;;;;5097922;28;20024;-74
2022/05/18 08:26:03;;;;;;;9.30;2.58;;;24.50;99.90;;;;;;5099825;28;20480;-74
2022/05/18 08:28:29;;;;;;;14.98;2.75;;;24.60;99.90;;;;;;5098522;28;20119;-74
2022/05/18 08:30:55;;;;;;;10.55;2.28;;;24.90;99.90;;;;;;5099803;28;20349;-74
2022/05/18 08:33:22;;;;;;;6.05;2.58;;;24.90;99.90;;;;;;5098224;28;20028;-75
2022/05/18 08:35:48;;;;;;;7.43;2.30;;;24.80;99.90;;;;;;5099533;28;20038;-75
2022/05/18 08:38:15;;;;;;;8.23;2.60;;;24.90;99.90;;;;;;5097989;28;20520;-76
2022/05/18 08:40:48;;;;;;;14.20;2.40;;;24.90;99.90;;;;;;5092093;28;20396;-77
2022/05/18 08:43:33;;;;;;;4.72;2.33;;;25.20;99.90;;;;;;5099600;28;20480;-76
2022/05/18 08:46:21;;;;;;;9.10;2.72;;;25.40;99.90;;;;;;5097783;28;20066;-77
2022/05/18 08:49:02;;;;;;;4.70;2.30;;;25.50;99.90;;;;;;5098007;28;20020;-77
2022/05/18 08:51:31;;;;;;;8.63;2.17;;;25.60;99.90;;;;;;5093289;28;20092;-77
2022/05/18 08:54:16;;;;;;;7.38;1.83;;;25.70;99.90;;;;;;5087767;28;20515;-76
2022/05/18 08:56:44;;;;;;;4.90;2.15;;;25.80;99.90;;;;;;5077708;28;20040;-76
2022/05/18 08:59:32;;;;;;;7.70;1.75;;;25.80;99.20;;;;;;5070405;28;20028;-76
2022/05/18 09:01:59;;;;;;;4.90;1.73;;;25.70;99.30;;;;;;5077874;28;20036;-76
2022/05/18 09:04:55;;;;;;;5.90;2.10;;;25.90;99.90;;;;;;5086570;28;20058;-77
2022/05/18 09:07:26;;;;;;;5.38;1.80;;;26.00;99.70;;;;;;5084411;28;20024;-77
2022/05/18 09:10:16;;;;;;;10.65;2.47;;;26.20;99.90;;;;;;5097506;28;20394;-77
2022/05/18 09:12:48;;;;;;;7.63;2.25;;;26.30;99.70;;;;;;5078146;28;20024;-76
2022/05/18 09:15:20;;;;;;;10.55;2.25;;;26.40;98.90;;;;;;5093803;28;20028;-79
2022/05/18 09:18:04;;;;;;;7.70;2.33;;;26.30;99.60;;;;;;5088958;28;20139;-77
2022/05/18 09:20:52;;;;;;;6.70;2.20;;;26.30;98.70;;;;;;5091259;28;20081;-77
2022/05/18 09:23:52;;;;;;;7.07;2.13;;;26.30;99.30;;;;;;5076443;28;20067;-78
2022/05/18 09:26:36;;;;;;;3.35;1.77;;;26.40;99.90;;;;;;5078751;28;20059;-76
2022/05/18 09:29:35;;;;;;;6.50;2.25;;;26.40;99.60;;;;;;5088581;28;20084;-76
2022/05/18 09:32:28;;;;;;;13.00;2.15;;;26.50;98.00;;;;;;5097070;28;20464;-78
2022/05/18 09:35:15;;;;;;;5.90;1.90;;;26.50;97.50;;;;;;5080064;28;20031;-77
2022/05/18 09:37:56;;;;;;;8.27;2.35;;;26.40;96.80;;;;;;5096785;28;20120;-78
2022/05/18 09:40:35;;;;;;;4.30;1.90;;;26.40;96.10;;;;;;5098370;28;20047;-77
2022/05/18 09:43:21;;;;;;;16.00;3.50;;;26.50;97.50;;;;;;5098108;28;20024;-77
2022/05/18 09:45:49;;;;;;;227.52;45.20;;;26.70;96.60;;;;;;5096417;28;20064;-77
2022/05/18 09:48:35;;;;;;;198.13;41.47;;;27.00;97.50;;;;;;5096803;28;20016;-78
2022/05/18 09:51:03;;;;;;;9.43;2.70;;;27.10;97.20;;;;;;5096058;28;20051;-77
2022/05/18 09:53:30;;;;;;;6.00;2.50;;;27.30;97.40;;;;;;5097895;28;20024;-78
2022/05/18 09:55:56;;;;;;;21.60;5.38;;;27.40;96.30;;;;;;5096475;28;20032;-76
2022/05/18 09:58:29;;;;;;;6.05;2.05;;;27.60;96.00;;;;;;5096635;28;20034;-76
2022/05/18 10:09:45;;;;;;;6.97;2.40;;;27.70;95.20;;;;;;5097902;28;20415;-75
2022/05/18 10:12:38;;;;;;;7.45;2.28;;;27.70;94.20;;;;;;5097689;28;20026;-76
2022/05/18 10:15:09;;;;;;;5.68;1.80;;;27.70;94.50;;;;;;5078741;28;20093;-77
2022/05/18 10:17:44;;;;;;;13.48;3.45;;;27.80;94.60;;;;;;5087521;28;20024;-75
2022/05/18 10:20:25;;;;;;;9.52;1.85;;;28.00;95.80;;;;;;5096477;28;20056;-76
2022/05/18 10:22:52;;;;;;;5.45;1.98;;;28.10;95.50;;;;;;5095964;28;20024;-76
2022/05/18 10:25:35;;;;;;;6.57;2.08;;;28.20;94.50;;;;;;5096450;28;20027;-76
2022/05/18 10:28:17;;;;;;;5.28;2.00;;;28.40;94.70;;;;;;5079525;28;20028;-76
2022/05/18 10:31:16;;;;;;;9.30;2.05;;;28.30;94.00;;;;;;5087968;28;20028;-77
2022/05/18 10:33:42;;;;;;;5.70;2.10;;;28.40;94.60;;;;;;5097192;28;20838;-77
2022/05/18 10:36:13;;;;;;;7.95;2.20;;;28.50;94.10;;;;;;5086948;28;20482;-76
2022/05/18 10:39:03;;;;;;;4.93;2.20;;;28.60;93.80;;;;;;5095762;28;20047;-77
2022/05/18 10:41:43;;;;;;;8.88;2.65;;;28.50;92.00;;;;;;5097296;28;20024;-79
2022/05/18 10:44:19;;;;;;;6.25;2.08;;;28.60;92.20;;;;;;5097162;28;20024;-76
2022/05/18 10:46:47;;;;;;;8.85;2.50;;;28.60;93.20;;;;;;5097163;28;20473;-77
2022/05/18 10:49:31;;;;;;;7.80;2.03;;;28.70;92.50;;;;;;5097420;28;20020;-75
2022/05/18 10:52:28;;;;;;;8.05;1.80;;;28.80;92.60;;;;;;5097287;28;20020;-77
2022/05/18 10:55:04;;;;;;;3.30;1.70;;;28.90;93.00;;;;;;5097268;28;20365;-77
2022/05/18 10:57:36;;;;;;;7.88;1.88;;;29.10;93.40;;;;;;5097065;28;20028;-77
2022/05/18 11:00:17;;;;;;;9.10;2.30;;;29.30;92.70;;;;;;5097085;28;20029;-76
2022/05/18 11:02:59;;;;;;;5.63;2.33;;;29.40;91.60;;;;;;5097445;28;20028;-76
2022/05/18 11:05:48;;;;;;;6.47;2.35;;;29.40;91.00;;;;;;5096924;28;20058;-76
2022/05/18 11:08:17;;;;;;;11.35;3.40;;;29.60;91.40;;;;;;5096899;28;20076;-76
2022/05/18 11:11:00;;;;;;;7.60;2.00;;;29.70;90.00;;;;;;5096861;28;20500;-76
2022/05/18 11:13:50;;;;;;;6.78;2.05;;;29.80;91.40;;;;;;5095837;28;20027;-76
2022/05/18 11:16:22;;;;;;;6.75;2.28;;;29.90;92.20;;;;;;5085358;28;20028;-77
2022/05/18 11:19:05;;;;;;;7.18;2.85;;;30.00;90.80;;;;;;5086350;28;20084;-76
2022/05/18 11:21:44;;;;;;;4.47;2.20;;;30.00;89.10;;;;;;5088863;28;20028;-76
2022/05/18 11:24:39;;;;;;;9.15;3.05;;;30.10;88.80;;;;;;5099616;28;20053;-76
2022/05/18 11:27:20;;;;;;;6.70;2.67;;;30.10;85.00;;;;;;5099510;28;20032;-77
2022/05/18 11:30:10;;;;;;;12.40;3.03;;;30.20;84.30;;;;;;5100423;28;20365;-76
2022/05/18 11:33:01;;;;;;;10.80;3.08;;;30.40;86.40;;;;;;5100837;28;20103;-77
2022/05/18 11:35:33;;;;;;;7.97;2.88;;;30.50;85.00;;;;;;5100737;28;20028;-76
2022/05/18 11:38:17;;;;;;;7.78;2.90;;;30.50;85.60;;;;;;5098891;28;20032;-76
2022/05/18 11:41:14;;;;;;;9.68;2.90;;;30.70;87.50;;;;;;5099140;28;20054;-76
2022/05/18 11:43:51;;;;;;;5.95;3.00;;;30.80;86.80;;;;;;5100514;28;20539;-77
2022/05/18 11:46:39;;;;;;;6.20;2.75;;;30.80;82.60;;;;;;5098872;28;20097;-75
2022/05/18 11:49:24;;;;;;;10.00;2.83;;;30.80;80.60;;;;;;5100363;28;20078;-76
2022/05/18 11:52:21;;;;;;;8.38;3.05;;;30.90;80.00;;;;;;5100356;28;20039;-75
2022/05/18 11:55:02;;;;;;;11.50;3.08;;;31.00;81.40;;;;;;5100476;28;20020;-74
2022/05/18 11:57:50;;;;;;;4.80;2.28;;;31.00;81.30;;;;;;5100198;28;20027;-76
2022/05/18 12:00:44;;;;;;;9.85;2.90;;;31.10;80.90;;;;;;5092992;28;20036;-75
2022/05/18 12:03:51;;;;;;;6.35;2.92;;;31.20;79.30;;;;;;5100264;28;20027;-75
2022/05/18 12:06:48;;;;;;;9.48;2.92;;;31.20;80.10;;;;;;5100156;28;20068;-75
2022/05/18 12:09:50;;;;;;;6.55;2.58;;;31.30;78.10;;;;;;5100016;28;20484;-77
2022/05/18 12:12:28;;;;;;;8.18;2.33;;;31.40;77.30;;;;;;5099935;28;20512;-77
2022/05/18 12:15:10;;;;;;;8.75;2.78;;;31.40;75.00;;;;;;5098601;28;20028;-77
2022/05/18 12:17:48;;;;;;;10.80;2.78;;;31.40;76.10;;;;;;5090013;28;20556;-76
2022/05/18 12:20:32;;;;;;;8.88;2.90;;;31.60;76.50;;;;;;5098296;28;20031;-76
2022/05/18 12:23:01;;;;;;;5.00;2.50;;;31.60;76.60;;;;;;5099492;28;20020;-76
2022/05/18 12:25:29;;;;;;;5.80;2.83;;;31.60;75.20;;;;;;5099652;28;20080;-76
2022/05/18 12:28:02;;;;;;;5.25;2.65;;;31.70;77.40;;;;;;5098145;28;20024;-74
2022/05/18 12:30:29;;;;;;;6.53;2.75;;;31.80;76.20;;;;;;5098177;28;20024;-75
2022/05/18 12:32:56;;;;;;;4.47;2.42;;;31.80;74.40;;;;;;5098081;28;20024;-74
2022/05/18 12:35:35;;;;;;;8.85;2.45;;;32.00;73.30;;;;;;5094252;28;20025;-74
2022/05/18 12:38:13;;;;;;;7.30;2.25;;;32.10;75.70;;;;;;5113095;28;20035;-73
2022/05/18 12:40:50;;;;;;;4.70;2.38;;;32.10;72.40;;;;;;5099346;28;20099;-73
2022/05/18 12:43:40;;;;;;;5.43;2.92;;;32.20;74.10;;;;;;5098268;28;20031;-75
2022/05/18 12:46:21;;;;;;;6.82;2.33;;;32.30;72.80;;;;;;5099019;28;20048;-74
2022/05/18 12:48:47;;;;;;;8.85;2.80;;;32.30;72.40;;;;;;5097808;28;20472;-75
2022/05/18 12:51:30;;;;;;;12.00;2.95;;;32.30;72.50;;;;;;5099411;28;20024;-74
2022/05/18 12:54:04;;;;;;;5.28;2.20;;;32.30;72.20;;;;;;5098740;28;20112;-74
2022/05/18 12:56:36;;;;;;;5.55;2.15;;;32.40;72.60;;;;;;5097779;28;20604;-74
2022/05/18 12:59:09;;;;;;;8.43;2.13;;;32.50;72.20;;;;;;5098861;28;20028;-74
2022/05/18 13:01:40;;;;;;;5.70;2.38;;;32.60;73.20;;;;;;5099112;28;20024;-73
2022/05/18 13:04:09;;;;;;;6.03;2.45;;;32.70;71.40;;;;;;5098809;28;20024;-75
2022/05/18 13:06:49;;;;;;;6.30;2.30;;;32.60;72.00;;;;;;5097510;28;20388;-73
2022/05/18 13:09:27;;;;;;;6.15;2.67;;;32.80;69.60;;;;;;5090306;28;20035;-73
2022/05/18 13:12:17;;;;;;;9.30;3.05;;;32.80;69.30;;;;;;5095621;28;20099;-74
2022/05/18 13:15:03;;;;;;;4.97;2.30;;;32.90;69.60;;;;;;5098578;28;20032;-74
2022/05/18 13:17:53;;;;;;;4.80;2.03;;;33.00;70.00;;;;;;5076048;28;20032;-74
2022/05/18 13:20:22;;;;;;;;;;;33.10;69.30;;;;;;5098985;28;20027;-74
2022/05/18 13:22:59;;;;;;;6.95;2.50;;;32.90;69.70;;;;;;5098198;28;19933;-74
2022/05/18 13:25:35;;;;;;;5.25;2.42;;;33.00;70.60;;;;;;5097461;28;20501;-76
2022/05/18 13:28:05;;;;;;;6.45;2.42;;;33.10;73.50;;;;;;5098361;28;20028;-74